Time;durP1;ratioP1;P1;durP2;ratioP2;P2;SDS_P1;SDS_P2;PMS_P1;PMS_P2;Temp;Humidity;BMP_temperature;BMP_pressure;BME280_temperature;BME280_humidity;BME280_pressure;Samples;Min_cycle;Max_cycle;Signal;HPM_P1;HPM_P2
2021/01/22 00:01:49;;;;;;;;;;;6.00;99.90;;;;;;5123691;28;19915;-83
2021/01/22 00:04:14;;;;;;;;;;;6.00;99.90;;;;;;5105982;28;20294;-82
2021/01/22 00:06:40;;;;;;;;;;;5.90;99.90;;;;;;5126850;27;19919;-82
2021/01/22 00:09:05;;;;;;;;;;;5.80;99.90;;;;;;5104882;27;19911;-83
2021/01/22 00:11:31;;;;;;;;;;;5.80;99.90;;;;;;5126736;27;19908;-82
2021/01/22 00:13:56;;;;;;;;;;;5.70;99.90;;;;;;5106888;27;20270;-82
2021/01/22 00:16:22;;;;;;;;;;;5.60;99.90;;;;;;5127302;27;19927;-82
2021/01/22 00:18:47;;;;;;;;;;;5.30;99.90;;;;;;5128187;27;19912;-83
2021/01/22 00:21:13;;;;;;;;;;;5.20;99.90;;;;;;5128480;27;19907;-82
2021/01/22 00:23:38;;;;;;;;;;;5.10;99.90;;;;;;5100415;27;19912;-83
2021/01/22 00:26:04;;;;;;;;;;;5.00;99.90;;;;;;5104851;27;20383;-83
2021/01/22 00:28:30;;;;;;;;;;;4.90;99.90;;;;;;5126056;27;19919;-83
2021/01/22 00:30:55;;;;;;;;;;;4.70;99.90;;;;;;5125699;27;19908;-82
2021/01/22 00:33:21;;;;;;;;;;;4.70;99.90;;;;;;5126210;27;19911;-83
2021/01/22 00:35:46;;;;;;;;;;;4.60;99.90;;;;;;5126915;27;19990;-83
2021/01/22 00:38:12;;;;;;;;;;;4.60;99.90;;;;;;5107159;28;19977;-82
2021/01/22 00:40:37;;;;;;;;;;;4.50;99.90;;;;;;5111060;27;19922;-83
2021/01/22 00:43:03;;;;;;;;;;;4.40;99.90;;;;;;5110908;27;20337;-83
2021/01/22 00:45:28;;;;;;;;;;;4.40;99.90;;;;;;5109103;27;19966;-82
2021/01/22 00:47:54;;;;;;;;;;;4.30;99.90;;;;;;5126755;27;19907;-82
2021/01/22 00:50:19;;;;;;;;;;;4.30;99.90;;;;;;5110627;27;19907;-83
2021/01/22 00:52:45;;;;;;;;;;;4.20;99.90;;;;;;5127565;27;19960;-83
2021/01/22 00:55:10;;;;;;;;;;;4.10;99.90;;;;;;5106772;27;19915;-83
2021/01/22 00:57:35;;;;;;;;;;;4.10;99.90;;;;;;5125508;27;19907;-83
2021/01/22 01:00:01;;;;;;;;;;;4.10;99.90;;;;;;5099847;27;19927;-82
2021/01/22 01:02:27;;;;;;;;;;;4.00;99.90;;;;;;5128848;27;19915;-82
2021/01/22 01:04:52;;;;;;;;;;;4.00;99.90;;;;;;5126229;27;19907;-83
2021/01/22 01:07:18;;;;;;;;;;;3.90;99.90;;;;;;5110624;27;19957;-83
2021/01/22 01:09:43;;;;;;;;;;;3.90;99.90;;;;;;5127159;27;19908;-82
2021/01/22 01:12:09;;;;;;;;;;;3.90;99.90;;;;;;5106099;28;19908;-82
2021/01/22 01:14:34;;;;;;;;;;;3.90;99.90;;;;;;5124868;27;19914;-82
2021/01/22 01:16:59;;;;;;;;;;;3.80;99.90;;;;;;5099640;27;19908;-82
2021/01/22 01:19:25;;;;;;;;;;;3.80;99.90;;;;;;5124938;27;19994;-82
2021/01/22 01:21:50;;;;;;;;;;;3.90;99.90;;;;;;5107734;27;19911;-81
2021/01/22 01:24:16;;;;;;;;;;;3.80;99.90;;;;;;5127993;27;19912;-81
2021/01/22 01:26:41;;;;;;;;;;;3.80;99.90;;;;;;5106596;27;19907;-81
2021/01/22 01:29:07;;;;;;;;;;;3.80;99.90;;;;;;5124553;27;20014;-81
2021/01/22 01:31:32;;;;;;;;;;;3.80;99.90;;;;;;5124931;27;19915;-81
2021/01/22 01:33:58;;;;;;;;;;;3.80;99.90;;;;;;5125029;27;19921;-81
2021/01/22 01:36:23;;;;;;;;;;;3.80;99.90;;;;;;5127081;27;20291;-81
2021/01/22 01:38:48;;;;;;;;;;;3.70;99.90;;;;;;5125777;27;19907;-81
2021/01/22 01:41:14;;;;;;;;;;;3.70;99.90;;;;;;5124328;27;19911;-81
2021/01/22 01:43:40;;;;;;;;;;;3.70;99.90;;;;;;5125583;27;20294;-80
2021/01/22 01:46:05;;;;;;;;;;;3.70;99.90;;;;;;5107119;27;20278;-80
2021/01/22 01:48:31;;;;;;;;;;;3.70;99.90;;;;;;5125988;27;19915;-80
2021/01/22 01:50:56;;;;;;;;;;;3.70;99.90;;;;;;5126511;27;20375;-80
2021/01/22 01:53:24;;;;;;;;;;;3.70;99.90;;;;;;5105725;27;19908;-80
2021/01/22 01:55:49;;;;;;;;;;;3.70;99.90;;;;;;5126100;27;20006;-80
2021/01/22 01:58:15;;;;;;;;;;;3.70;99.90;;;;;;5124039;27;20357;-80
2021/01/22 02:00:41;;;;;;;;;;;3.70;99.90;;;;;;5106725;27;19931;-80
2021/01/22 02:03:06;;;;;;;;;;;3.70;99.90;;;;;;5106617;27;19918;-80
2021/01/22 02:05:32;;;;;;;;;;;3.70;99.90;;;;;;5123688;27;19908;-79
2021/01/22 02:07:57;;;;;;;;;;;3.70;99.90;;;;;;5108064;27;20321;-80
2021/01/22 02:10:23;;;;;;;;;;;3.70;99.90;;;;;;5107793;27;21184;-80
2021/01/22 02:12:49;;;;;;;;;;;3.70;99.90;;;;;;5105512;27;19956;-80
2021/01/22 02:15:15;;;;;;;;;;;3.70;99.90;;;;;;5105310;27;19961;-80
2021/01/22 02:17:44;;;;;;;;;;;3.70;99.90;;;;;;5113565;27;20382;-80
2021/01/22 02:20:20;;;;;;;;;;;3.60;99.90;;;;;;5104375;27;19912;-80
2021/01/22 02:22:45;;;;;;;;;;;3.60;99.90;;;;;;5105371;27;19911;-80
2021/01/22 02:25:12;;;;;;;;;;;3.60;99.90;;;;;;5125283;27;19908;-80
2021/01/22 02:27:38;;;;;;;;;;;3.60;99.90;;;;;;5125516;27;19908;-80
2021/01/22 02:30:07;;;;;;;;;;;3.60;99.90;;;;;;5104494;28;20383;-80
2021/01/22 02:32:34;;;;;;;;;;;3.60;99.90;;;;;;5105803;27;19908;-80
2021/01/22 02:35:02;;;;;;;;;;;3.60;99.90;;;;;;5105143;27;20349;-80
2021/01/22 02:37:28;;;;;;;;;;;3.60;99.90;;;;;;5107640;27;19915;-80
2021/01/22 02:39:55;;;;;;;;;;;3.60;99.90;;;;;;5100217;27;19908;-80
2021/01/22 02:42:21;;;;;;;;;;;3.70;99.90;;;;;;5123356;27;20002;-80
2021/01/22 02:44:47;;;;;;;;;;;3.60;99.90;;;;;;5123957;27;19970;-80
2021/01/22 02:47:13;;;;;;;;;;;3.70;99.90;;;;;;5106852;27;19911;-80
2021/01/22 02:49:39;;;;;;;;;;;3.70;99.90;;;;;;5124428;27;19908;-80
2021/01/22 02:52:05;;;;;;;;;;;3.70;99.90;;;;;;5127341;27;20390;-80
2021/01/22 02:54:31;;;;;;;;;;;3.70;99.90;;;;;;5104918;28;19908;-80
2021/01/22 02:57:15;;;;;;;;;;;3.60;99.90;;;;;;5103958;27;20450;-80
2021/01/22 03:00:07;;;;;;;;;;;3.60;99.90;;;;;;5125714;27;19934;-80
2021/01/22 03:02:38;;;;;;;;;;;3.60;99.90;;;;;;5088937;27;19911;-80
2021/01/22 03:05:05;;;;;;;;;;;3.60;99.90;;;;;;5123874;27;20057;-79
2021/01/22 03:07:43;;;;;;;;;;;3.50;99.90;;;;;;5110643;27;20294;-80
2021/01/22 03:10:09;;;;;;;;;;;3.50;99.90;;;;;;5119597;27;19919;-80
2021/01/22 03:12:35;;;;;;;;;;;3.50;99.90;;;;;;5125424;27;19907;-80
2021/01/22 03:15:02;;;;;;;;;;;3.40;99.90;;;;;;5105141;28;19912;-80
2021/01/22 03:17:27;;;;;;;;;;;3.40;99.90;;;;;;5123024;27;19907;-80
2021/01/22 03:19:53;;;;;;;;;;;3.40;99.90;;;;;;5104645;27;19907;-80
2021/01/22 03:22:18;;;;;;;;;;;3.40;99.90;;;;;;5124214;27;19923;-80
2021/01/22 03:24:44;;;;;;;;;;;3.40;99.90;;;;;;5124484;27;19945;-80
2021/01/22 03:27:09;;;;;;;;;;;3.40;99.90;;;;;;5126952;27;19914;-80
2021/01/22 03:29:36;;;;;;;;;;;3.30;99.90;;;;;;5110890;27;19995;-80
2021/01/22 03:32:01;;;;;;;;;;;3.30;99.90;;;;;;5104697;27;19908;-81
2021/01/22 03:34:27;;;;;;;;;;;3.30;99.90;;;;;;5121997;27;20016;-80
2021/01/22 03:36:53;;;;;;;;;;;3.40;99.90;;;;;;5125499;28;19908;-80
2021/01/22 03:39:19;;;;;;;;;;;3.40;99.90;;;;;;5124068;28;20439;-80
2021/01/22 03:41:45;;;;;;;;;;;3.40;99.90;;;;;;5103299;27;19935;-81
2021/01/22 03:44:10;;;;;;;;;;;3.40;99.90;;;;;;5127903;27;20002;-81
2021/01/22 03:46:36;;;;;;;;;;;3.40;99.90;;;;;;5127943;27;20430;-80
2021/01/22 03:49:01;;;;;;;;;;;3.40;99.90;;;;;;5128558;27;19952;-81
2021/01/22 03:51:27;;;;;;;;;;;3.40;99.90;;;;;;5127917;27;19908;-80
2021/01/22 03:53:54;;;;;;;;;;;3.40;99.90;;;;;;5124001;27;20284;-80
2021/01/22 03:56:19;;;;;;;;;;;3.40;99.90;;;;;;5108401;27;19915;-81
2021/01/22 03:58:44;;;;;;;;;;;3.40;99.90;;;;;;5106715;27;19915;-81
2021/01/22 04:01:10;;;;;;;;;;;3.40;99.90;;;;;;5109076;27;19919;-80
2021/01/22 04:03:35;;;;;;;;;;;3.40;99.90;;;;;;5127552;27;19955;-80
2021/01/22 04:06:01;;;;;;;;;;;3.30;99.90;;;;;;5106657;27;20260;-80
2021/01/22 04:08:26;;;;;;;;;;;3.30;99.90;;;;;;5107351;28;19912;-80
2021/01/22 04:10:52;;;;;;;;;;;3.30;99.90;;;;;;5110436;27;19930;-80
2021/01/22 04:13:17;;;;;;;;;;;3.30;99.90;;;;;;5108169;27;19954;-80
2021/01/22 04:15:43;;;;;;;;;;;3.30;99.90;;;;;;5125046;27;20363;-80
2021/01/22 04:18:08;;;;;;;;;;;3.20;99.90;;;;;;5108441;27;19980;-81
2021/01/22 04:20:34;;;;;;;;;;;3.20;99.90;;;;;;5126199;27;19907;-80
2021/01/22 04:23:00;;;;;;;;;;;3.20;99.90;;;;;;5127705;27;19919;-80
2021/01/22 04:25:25;;;;;;;;;;;3.30;99.90;;;;;;5127642;27;20355;-81
2021/01/22 04:27:51;;;;;;;;;;;3.30;99.90;;;;;;5125689;27;19907;-80
2021/01/22 04:30:17;;;;;;;;;;;3.20;99.90;;;;;;5126283;27;20390;-80
2021/01/22 04:32:42;;;;;;;;;;;3.20;99.90;;;;;;5110209;27;19908;-80
2021/01/22 04:35:12;;;;;;;;;;;3.30;99.90;;;;;;5108265;27;19920;-81
2021/01/22 04:37:38;;;;;;;;;;;3.30;99.90;;;;;;5125141;27;19912;-80
2021/01/22 04:40:04;;;;;;;;;;;3.30;99.90;;;;;;5127137;27;19908;-80
2021/01/22 04:42:29;;;;;;;;;;;3.40;99.90;;;;;;5126138;27;19912;-80
2021/01/22 04:44:55;;;;;;;;;;;3.40;99.90;;;;;;5126638;27;19915;-81
2021/01/22 04:47:21;;;;;;;;;;;3.40;99.90;;;;;;5126340;27;20484;-81
2021/01/22 04:49:49;;;;;;;;;;;3.50;99.90;;;;;;5126690;27;19908;-80
2021/01/22 04:52:14;;;;;;;;;;;3.50;99.90;;;;;;5128861;27;19907;-80
2021/01/22 04:54:41;;;;;;;;;;;3.50;99.90;;;;;;5129087;27;20309;-80
2021/01/22 04:57:07;;;;;;;;;;;3.60;99.90;;;;;;5123159;27;19947;-80
2021/01/22 04:59:39;;;;;;;;;;;3.60;99.90;;;;;;5125997;27;20013;-80
2021/01/22 05:02:05;;;;;;;;;;;3.60;99.90;;;;;;5114283;27;20002;-80
2021/01/22 05:04:30;;;;;;;;;;;3.60;99.90;;;;;;5125578;27;19947;-80
2021/01/22 05:06:56;;;;;;;;;;;3.60;99.90;;;;;;5108485;27;19913;-80
2021/01/22 05:09:23;;;;;;;;;;;3.60;99.90;;;;;;5127654;27;19907;-80
2021/01/22 05:11:52;;;;;;;;;;;3.60;99.90;;;;;;5099936;27;20278;-80
2021/01/22 05:14:18;;;;;;;;;;;3.60;99.90;;;;;;5124288;27;19915;-80
2021/01/22 05:16:57;;;;;;;;;;;3.50;99.90;;;;;;5107188;27;19908;-80
2021/01/22 05:19:23;;;;;;;;;;;3.50;99.90;;;;;;5126160;27;20000;-80
2021/01/22 05:21:48;;;;;;;;;;;3.50;99.90;;;;;;5107447;27;20339;-80
2021/01/22 05:24:19;;;;;;;;;;;3.40;99.90;;;;;;5124715;27;19914;-80
2021/01/22 05:26:44;;;;;;;;;;;3.50;99.90;;;;;;5108814;27;20278;-80
2021/01/22 05:29:14;;;;;;;;;;;3.40;99.90;;;;;;5108357;27;20367;-81
2021/01/22 05:31:39;;;;;;;;;;;3.50;99.90;;;;;;5105963;27;19911;-81
2021/01/22 05:34:05;;;;;;;;;;;3.50;99.90;;;;;;5106288;27;20427;-80
2021/01/22 05:36:32;;;;;;;;;;;3.50;99.90;;;;;;5106878;27;19908;-80
2021/01/22 05:38:59;;;;;;;;;;;3.40;99.90;;;;;;5125344;27;19907;-80
2021/01/22 05:41:24;;;;;;;;;;;3.40;99.90;;;;;;5124605;27;20385;-80
2021/01/22 05:43:51;;;;;;;;;;;3.40;99.90;;;;;;5111255;27;19911;-80
2021/01/22 05:46:20;;;;;;;;;;;3.40;99.90;;;;;;5125250;27;19908;-80
2021/01/22 05:48:45;;;;;;;;;;;3.40;99.90;;;;;;5126878;27;19915;-80
2021/01/22 05:51:12;;;;;;;;;;;3.40;99.90;;;;;;5105343;27;20350;-80
2021/01/22 05:53:47;;;;;;;;;;;3.40;99.90;;;;;;5127290;27;19997;-81
2021/01/22 05:56:17;;;;;;;;;;;3.40;99.90;;;;;;5121938;27;19912;-80
2021/01/22 05:58:46;;;;;;;;;;;3.40;99.90;;;;;;5122808;27;19946;-80
2021/01/22 06:01:13;;;;;;;;;;;3.40;99.90;;;;;;5125402;27;19919;-80
2021/01/22 06:03:40;;;;;;;;;;;3.40;99.90;;;;;;5106794;27;20318;-80
2021/01/22 06:06:06;;;;;;;;;;;3.40;99.90;;;;;;5124308;27;19907;-81
2021/01/22 06:08:32;;;;;;;;;;;3.40;99.90;;;;;;5124006;27;19908;-80
2021/01/22 06:10:59;;;;;;;;;;;3.40;99.90;;;;;;5121753;27;19915;-80
2021/01/22 06:13:25;;;;;;;;;;;3.40;99.90;;;;;;5097480;28;20300;-80
2021/01/22 06:15:55;;;;;;;;;;;3.30;99.90;;;;;;5114556;28;20000;-81
2021/01/22 06:18:23;;;;;;;;;;;3.30;99.90;;;;;;5098817;27;19908;-80
2021/01/22 06:20:51;;;;;;;;;;;3.30;99.90;;;;;;5114271;27;20339;-80
2021/01/22 06:23:17;;;;;;;;;;;3.30;99.90;;;;;;5096298;28;20325;-81
2021/01/22 06:25:43;;;;;;;;;;;3.30;99.90;;;;;;5117193;27;19914;-79
2021/01/22 06:28:10;;;;;;;;;;;3.30;99.90;;;;;;5104039;28;20024;-79
2021/01/22 06:30:36;;;;;;;;;;;3.30;99.90;;;;;;5114814;28;20325;-80
2021/01/22 06:33:03;;;;;;;;;;;3.30;99.90;;;;;;5130654;27;19930;-79
2021/01/22 06:35:29;;;;;;;;;;;3.30;99.90;;;;;;5114523;28;20022;-79
2021/01/22 06:37:55;;;;;;;;;;;3.30;99.90;;;;;;5130232;27;19908;-79
2021/01/22 06:40:21;;;;;;;;;;;3.30;99.90;;;;;;5130407;27;19908;-80
2021/01/22 06:42:47;;;;;;;;;;;3.30;99.90;;;;;;5096212;28;19911;-79
2021/01/22 06:45:13;;;;;;;;;;;3.30;99.90;;;;;;5114492;28;20313;-79
2021/01/22 06:47:38;;;;;;;;;;;3.30;99.90;;;;;;5114394;28;19915;-79
2021/01/22 06:50:19;;;;;;;;;;;3.30;99.90;;;;;;5114345;28;19908;-79
2021/01/22 06:53:02;;;;;;;;;;;3.30;99.90;;;;;;5096103;28;20381;-79
2021/01/22 06:55:28;;;;;;;;;;;3.30;99.90;;;;;;5114413;28;19923;-79
2021/01/22 06:58:16;;;;;;;;;;;3.30;99.90;;;;;;5114263;28;19907;-79
2021/01/22 07:00:41;;;;;;;;;;;3.30;99.90;;;;;;5113415;28;19920;-79
2021/01/22 07:03:07;;;;;;;;;;;3.20;99.90;;;;;;5114166;28;20006;-79
2021/01/22 07:05:32;;;;;;;;;;;3.20;99.90;;;;;;5095888;28;20393;-79
2021/01/22 07:07:58;;;;;;;;;;;3.20;99.90;;;;;;5113946;28;20322;-79
2021/01/22 07:10:43;;;;;;;;;;;3.20;99.90;;;;;;5096018;28;19908;-80
2021/01/22 07:13:28;;;;;;;;;;;3.20;99.90;;;;;;5113903;28;19911;-79
2021/01/22 07:16:01;;;;;;;;;;;3.20;99.90;;;;;;5129251;27;19961;-79
2021/01/22 07:18:26;;;;;;;;;;;3.20;99.90;;;;;;5123591;27;20001;-79
2021/01/22 07:21:11;;;;;;;;;;;3.20;99.90;;;;;;5123950;27;20379;-79
2021/01/22 07:23:37;;;;;;;;;;;3.20;99.90;;;;;;5106136;28;19911;-79
2021/01/22 07:26:02;;;;;;;;;;;3.20;99.90;;;;;;5124767;27;19907;-79
2021/01/22 07:28:28;;;;;;;;;;;3.20;99.90;;;;;;5123063;27;19916;-80
2021/01/22 07:30:54;;;;;;;;;;;3.20;99.90;;;;;;5105132;28;19911;-79
2021/01/22 07:33:25;;;;;;;;;;;3.20;99.90;;;;;;5124757;27;19923;-79
2021/01/22 07:35:51;;;;;;;;;;;3.20;99.90;;;;;;5105230;28;19907;-79
2021/01/22 07:38:23;;;;;;;;;;;3.20;99.90;;;;;;5099799;28;19960;-79
2021/01/22 07:40:49;;;;;;;;;;;3.20;99.90;;;;;;5095838;28;19912;-80
2021/01/22 07:43:15;;;;;;;;;;;3.20;99.90;;;;;;5125366;28;19911;-79
2021/01/22 07:45:41;;;;;;;;;;;3.20;99.90;;;;;;5134504;28;19912;-80
2021/01/22 07:48:06;;;;;;;;;;;3.20;99.90;;;;;;5130551;28;20056;-80
2021/01/22 07:50:32;;;;;;;;;;;3.20;99.90;;;;;;5125546;28;19911;-80
2021/01/22 07:52:58;;;;;;;;;;;3.20;99.90;;;;;;5099634;28;20065;-80
2021/01/22 07:55:23;;;;;;;;;;;3.10;99.90;;;;;;5104392;28;19921;-79
2021/01/22 07:58:03;;;;;;;;;;;3.10;99.90;;;;;;5095425;28;19908;-80
2021/01/22 08:00:35;;;;;;;;;;;3.20;99.90;;;;;;5095095;28;19919;-79
2021/01/22 08:03:01;;;;;;;;;;;3.20;99.90;;;;;;5113566;28;19912;-80
2021/01/22 08:05:33;;;;;;;;;;;3.20;99.90;;;;;;5113414;28;20283;-79
2021/01/22 08:07:59;;;;;;;;;;;3.20;99.90;;;;;;5113314;28;19911;-79
2021/01/22 08:10:28;;;;;;;;;;;3.30;99.90;;;;;;5113352;28;19915;-79
2021/01/22 08:12:58;;;;;;;;;;;3.30;99.90;;;;;;5112369;28;19911;-80
2021/01/22 08:15:24;;;;;;;;;;;3.40;99.90;;;;;;5118199;28;20021;-80
2021/01/22 08:17:49;;;;;;;;;;;3.40;99.90;;;;;;5132955;28;20020;-80
2021/01/22 08:20:16;;;;;;;;;;;3.40;99.90;;;;;;5109105;28;19914;-80
2021/01/22 08:22:42;;;;;;;;;;;3.40;99.90;;;;;;5094873;28;19964;-80
2021/01/22 08:25:07;;;;;;;;;;;3.40;99.90;;;;;;5113334;28;19907;-80
2021/01/22 08:27:33;;;;;;;;;;;3.50;99.90;;;;;;5113653;28;19911;-80
2021/01/22 08:29:58;;;;;;;;;;;3.50;99.90;;;;;;5117080;28;20434;-80
2021/01/22 08:32:24;;;;;;;;;;;3.50;99.90;;;;;;5117269;28;19915;-79
2021/01/22 08:34:50;;;;;;;;;;;3.50;99.90;;;;;;5102228;27;20006;-79
2021/01/22 08:37:15;;;;;;;;;;;3.60;99.90;;;;;;5136926;27;19919;-80
2021/01/22 08:39:48;;;;;;;;;;;3.60;99.90;;;;;;5119308;27;20377;-80
2021/01/22 08:42:13;;;;;;;;;;;3.60;99.90;;;;;;5118272;27;19912;-79
2021/01/22 08:44:52;;;;;;;;;;;3.60;99.90;;;;;;5119236;27;19908;-80
2021/01/22 08:47:18;;;;;;;;;;;3.70;99.90;;;;;;5132373;27;19912;-80
2021/01/22 08:49:53;;;;;;;;;;;3.70;99.90;;;;;;5121789;27;19933;-79
2021/01/22 08:52:19;;;;;;;;;;;3.70;99.90;;;;;;5116803;28;19911;-79
2021/01/22 08:54:45;;;;;;;;;;;3.70;99.90;;;;;;5116490;28;19908;-79
2021/01/22 08:57:10;;;;;;;;;;;3.70;99.90;;;;;;5116487;28;19936;-79
2021/01/22 09:00:02;;;;;;;;;;;3.80;99.90;;;;;;5115988;28;20333;-79
2021/01/22 09:02:41;;;;;;;;;;;3.80;99.90;;;;;;5111251;28;19918;-79
2021/01/22 09:05:07;;;;;;;;;;;3.80;99.90;;;;;;5111085;27;20375;-79
2021/01/22 09:07:32;;;;;;;;;;;3.80;99.90;;;;;;5098083;27;19916;-79
2021/01/22 09:09:58;;;;;;;;;;;3.80;99.90;;;;;;5086243;28;19915;-79
2021/01/22 09:12:28;;;;;;;;;;;3.90;99.90;;;;;;5116270;28;20002;-79
2021/01/22 09:14:59;;;;;;;;;;;3.90;99.90;;;;;;5116316;28;19915;-79
2021/01/22 09:17:25;;;;;;;;;;;3.90;99.90;;;;;;5104225;27;19919;-79
2021/01/22 09:19:51;;;;;;;;;;;4.00;99.90;;;;;;5121778;27;19907;-79
2021/01/22 09:22:21;;;;;;;;;;;4.00;99.90;;;;;;5121601;27;19911;-79
2021/01/22 09:24:47;;;;;;;;;;;4.00;99.90;;;;;;5115104;28;19930;-79
2021/01/22 09:27:12;;;;;;;;;;;4.00;99.90;;;;;;5078032;27;19915;-78
2021/01/22 09:29:37;;;;;;;;;;;4.00;99.90;;;;;;5077180;27;19964;-78
2021/01/22 09:32:06;;;;;;;;;;;4.10;99.90;;;;;;5092959;28;19960;-78
2021/01/22 09:34:31;;;;;;;;;;;4.10;99.90;;;;;;5097222;28;19915;-78
2021/01/22 09:36:57;;;;;;;;;;;4.10;99.90;;;;;;5115012;28;19908;-78
2021/01/22 09:39:22;;;;;;;;;;;4.10;99.90;;;;;;5124950;27;20010;-78
2021/01/22 09:41:48;;;;;;;;;;;4.10;99.90;;;;;;5111464;27;19958;-78
2021/01/22 09:44:13;;;;;;;;;;;4.20;99.90;;;;;;5091789;27;19965;-78
2021/01/22 09:46:38;;;;;;;;;;;4.20;99.90;;;;;;5082169;27;19964;-78
2021/01/22 09:49:04;;;;;;;;;;;4.20;99.90;;;;;;5125172;27;20011;-78
2021/01/22 09:51:30;;;;;;;;;;;4.20;99.90;;;;;;5116363;27;19918;-78
2021/01/22 09:53:55;;;;;;;;;;;4.20;99.90;;;;;;5123267;27;20375;-78
2021/01/22 09:56:20;;;;;;;;;;;4.20;99.90;;;;;;5104158;28;20393;-78
2021/01/22 09:58:46;;;;;;;;;;;4.20;99.90;;;;;;5114925;28;19908;-77
2021/01/22 10:01:11;;;;;;;;;;;4.20;99.90;;;;;;5114851;28;19918;-78
2021/01/22 10:03:37;;;;;;;;;;;4.20;99.90;;;;;;5114973;28;19911;-78
2021/01/22 10:06:02;;;;;;;;;;;4.30;99.90;;;;;;5114429;28;19977;-78
2021/01/22 10:08:28;;;;;;;;;;;4.30;99.90;;;;;;5133048;27;19907;-78
2021/01/22 10:10:54;;;;;;;;;;;4.30;99.90;;;;;;5120708;27;20253;-77
2021/01/22 10:13:19;;;;;;;;;;;4.40;99.90;;;;;;5116107;27;19955;-78
2021/01/22 10:15:44;;;;;;;;;;;4.40;99.90;;;;;;5114887;27;20363;-78
2021/01/22 10:18:11;;;;;;;;;;;4.50;99.90;;;;;;5102385;27;20014;-78
2021/01/22 10:20:37;;;;;;;;;;;4.60;99.90;;;;;;5113913;28;19926;-78
2021/01/22 10:23:02;;;;;;;;;;;4.60;99.90;;;;;;5096774;27;19912;-78
2021/01/22 10:25:28;;;;;;;;;;;4.60;99.90;;;;;;5095330;28;19915;-78
2021/01/22 10:27:53;;;;;;;;;;;4.70;99.90;;;;;;5114870;27;19908;-78
2021/01/22 10:30:19;;;;;;;;;;;4.70;99.90;;;;;;5095275;28;19918;-78
2021/01/22 10:32:44;;;;;;;;;;;4.80;99.90;;;;;;5115425;27;20002;-78
2021/01/22 10:35:10;;;;;;;;;;;4.90;99.90;;;;;;5116010;27;19965;-78
2021/01/22 10:37:38;;;;;;;;;;;4.90;99.90;;;;;;5096083;28;19907;-78
2021/01/22 10:40:04;;;;;;;;;;;5.00;99.90;;;;;;5113356;27;19908;-78
2021/01/22 10:42:29;;;;;;;;;;;5.10;99.90;;;;;;5115788;27;19911;-78
2021/01/22 10:44:55;;;;;;;;;;;5.10;99.90;;;;;;5116101;27;20397;-78
2021/01/22 10:47:20;;;;;;;;;;;5.20;99.90;;;;;;5117330;27;20294;-78
2021/01/22 10:49:46;;;;;;;;;;;5.30;99.90;;;;;;5097038;28;19930;-78
2021/01/22 10:52:11;;;;;;;;;;;5.40;99.90;;;;;;5115378;27;19914;-78
2021/01/22 10:54:36;;;;;;;;;;;5.50;99.90;;;;;;5095027;28;19960;-78
2021/01/22 10:57:02;;;;;;;;;;;5.70;99.90;;;;;;5125442;27;19984;-78
2021/01/22 10:59:27;;;;;;;;;;;6.30;99.90;;;;;;5098106;27;19990;-79
2021/01/22 11:01:53;;;;;;;;;;;6.80;99.90;;;;;;5119645;27;19977;-79
2021/01/22 11:04:18;;;;;;;;;;;7.40;99.90;;;;;;5097762;28;19915;-78
2021/01/22 11:06:44;;;;;;;;;;;7.70;99.90;;;;;;5113527;27;19998;-78
2021/01/22 11:09:09;;;;;;;;;;;7.60;99.90;;;;;;5096183;28;19977;-78
2021/01/22 11:11:35;;;;;;;;;;;7.50;99.90;;;;;;5094518;28;19912;-79
2021/01/22 11:14:00;;;;;;;;;;;7.50;99.90;;;;;;5094403;28;19914;-78
2021/01/22 11:16:26;;;;;;;;;;;7.40;99.90;;;;;;5114730;27;20011;-78
2021/01/22 11:18:51;;;;;;;;;;;7.30;99.90;;;;;;5097896;28;19915;-78
2021/01/22 11:21:16;;;;;;;;;;;7.10;99.90;;;;;;5114854;28;19908;-79
2021/01/22 11:23:42;;;;;;;;;;;7.00;99.90;;;;;;5096335;28;19986;-78
2021/01/22 11:26:07;;;;;;;;;;;7.00;99.90;;;;;;5097186;28;19965;-78
2021/01/22 11:28:33;;;;;;;;;;;6.80;99.90;;;;;;5114463;28;19915;-78
2021/01/22 11:30:58;;;;;;;;;;;6.90;99.90;;;;;;5095956;28;20465;-78
2021/01/22 11:33:24;;;;;;;;;;;6.90;99.90;;;;;;5113013;28;19957;-78
2021/01/22 11:35:49;;;;;;;;;;;6.80;99.90;;;;;;5113596;28;19911;-78
2021/01/22 11:38:15;;;;;;;;;;;7.00;99.90;;;;;;5094972;28;19980;-78
2021/01/22 11:40:40;;;;;;;;;;;7.20;99.90;;;;;;5125014;28;19916;-78
2021/01/22 11:43:06;;;;;;;;;;;7.30;99.90;;;;;;5116496;28;19912;-78
2021/01/22 11:45:31;;;;;;;;;;;7.60;99.90;;;;;;5100673;28;19943;-78
2021/01/22 11:47:56;;;;;;;;;;;7.70;99.90;;;;;;5113007;28;19915;-78
2021/01/22 11:50:22;;;;;;;;;;;7.90;99.90;;;;;;5111481;28;19908;-78
2021/01/22 11:52:47;;;;;;;;;;;8.10;99.90;;;;;;5096626;28;19953;-78
2021/01/22 11:55:13;;;;;;;;;;;8.20;99.90;;;;;;5115034;28;20023;-78
2021/01/22 11:57:38;;;;;;;;;;;8.30;99.90;;;;;;5097971;28;19919;-79
2021/01/22 12:00:04;;;;;;;;;;;8.10;99.90;;;;;;5114011;28;20002;-78
2021/01/22 12:02:29;;;;;;;;;;;8.20;99.90;;;;;;5114581;28;19938;-78
2021/01/22 12:04:55;;;;;;;;;;;8.10;99.90;;;;;;5121183;27;19950;-78
2021/01/22 12:07:20;;;;;;;;;;;7.90;99.90;;;;;;5102080;28;19908;-78
2021/01/22 12:09:46;;;;;;;;;;;8.10;99.90;;;;;;5118234;27;19908;-78
2021/01/22 12:12:11;;;;;;;;;;;8.30;99.90;;;;;;5100305;28;19976;-78
2021/01/22 12:14:37;;;;;;;;;;;8.10;99.90;;;;;;5117435;27;19947;-78
2021/01/22 12:17:02;;;;;;;;;;;7.80;99.90;;;;;;5116403;27;20426;-78
2021/01/22 12:19:28;;;;;;;;;;;7.80;99.90;;;;;;5101930;27;19915;-78
2021/01/22 12:21:53;;;;;;;;;;;7.80;99.90;;;;;;5118648;27;20420;-79
2021/01/22 12:24:19;;;;;;;;;;;7.90;99.90;;;;;;5098006;28;19969;-78
2021/01/22 12:26:44;;;;;;;;;;;7.80;99.90;;;;;;5117724;27;19942;-78
2021/01/22 12:29:10;;;;;;;;;;;7.60;99.90;;;;;;5117163;27;19911;-78
2021/01/22 12:31:35;;;;;;;;;;;7.50;99.90;;;;;;5117119;27;19955;-78
2021/01/22 12:34:01;;;;;;;;;;;7.50;99.90;;;;;;5119295;27;19911;-78
2021/01/22 12:36:26;;;;;;;;;;;7.60;99.90;;;;;;5117634;27;19919;-78
2021/01/22 12:38:52;;;;;;;;;;;7.60;99.90;;;;;;5118061;27;20359;-78
2021/01/22 12:41:17;;;;;;;;;;;7.60;99.90;;;;;;5116610;27;20371;-78
2021/01/22 12:43:46;;;;;;;;;;;7.50;99.90;;;;;;5115634;28;19920;-78
2021/01/22 12:46:12;;;;;;;;;;;7.30;99.90;;;;;;5118484;27;19931;-78
2021/01/22 12:48:38;;;;;;;;;;;7.10;99.90;;;;;;5119208;27;20007;-78
2021/01/22 12:51:03;;;;;;;;;;;7.10;99.90;;;;;;5118610;27;19951;-78
2021/01/22 12:53:29;;;;;;;;;;;7.10;99.90;;;;;;5098663;28;20367;-78
2021/01/22 12:55:54;;;;;;;;;;;7.10;99.90;;;;;;5117643;27;20554;-78
2021/01/22 12:58:20;;;;;;;;;;;7.10;99.90;;;;;;5116790;27;19914;-78
2021/01/22 13:00:45;;;;;;;;;;;7.10;99.90;;;;;;5115584;27;20375;-78
2021/01/22 13:03:10;;;;;;;;;;;7.30;99.90;;;;;;5118038;27;20056;-78
2021/01/22 13:05:37;;;;;;;;;;;7.50;99.90;;;;;;5100180;27;19908;-78
2021/01/22 13:08:02;;;;;;;;;;;7.70;99.90;;;;;;5114045;28;20283;-79
2021/01/22 13:10:28;;;;;;;;;;;7.90;99.90;;;;;;5116860;27;19908;-79
2021/01/22 13:12:53;;;;;;;;;;;7.90;99.30;;;;;;5117349;27;19928;-78
2021/01/22 13:15:19;;;;;;;;;;;7.90;99.20;;;;;;5114354;28;20276;-78
2021/01/22 13:17:44;;;;;;;;;;;7.80;99.50;;;;;;5103975;27;19908;-78
2021/01/22 13:20:10;;;;;;;;;;;7.70;99.20;;;;;;5099526;28;19947;-79
2021/01/22 13:22:36;;;;;;;;;;;7.70;99.20;;;;;;5106298;27;19921;-78
2021/01/22 13:25:03;;;;;;;;;;;7.80;99.90;;;;;;5120569;27;20283;-78
2021/01/22 13:27:29;;;;;;;;;;;7.80;98.50;;;;;;5096715;28;19951;-78
2021/01/22 13:29:55;;;;;;;;;;;7.80;97.80;;;;;;5107693;28;19908;-78
2021/01/22 13:32:21;;;;;;;;;;;7.70;97.20;;;;;;5116869;27;20485;-78
2021/01/22 13:34:46;;;;;;;;;;;7.60;98.70;;;;;;5116119;27;19911;-79
2021/01/22 13:37:12;;;;;;;;;;;7.40;99.00;;;;;;5116919;27;19919;-78
2021/01/22 13:39:37;;;;;;;;;;;7.30;98.90;;;;;;5117011;27;20295;-78
2021/01/22 13:42:03;;;;;;;;;;;7.30;99.30;;;;;;5118842;27;19931;-79
2021/01/22 13:44:28;;;;;;;;;;;7.20;99.60;;;;;;5095754;28;19994;-78
2021/01/22 13:46:53;;;;;;;;;;;7.20;98.90;;;;;;5117946;27;19915;-79
2021/01/22 13:49:19;;;;;;;;;;;7.10;99.20;;;;;;5118078;27;20378;-78
2021/01/22 13:51:45;;;;;;;;;;;7.10;99.40;;;;;;5099140;28;19981;-78
2021/01/22 13:54:10;;;;;;;;;;;7.10;99.90;;;;;;5098842;28;19908;-78
2021/01/22 13:56:35;;;;;;;;;;;7.10;99.90;;;;;;5115575;27;19908;-79
2021/01/22 13:59:01;;;;;;;;;;;7.00;99.90;;;;;;5096847;28;19947;-79
2021/01/22 14:01:30;;;;;;;;;;;7.00;99.90;;;;;;5114316;28;19950;-79
2021/01/22 14:03:55;;;;;;;;;;;7.00;99.90;;;;;;5099523;27;19912;-79
2021/01/22 14:06:20;;;;;;;;;;;6.90;99.90;;;;;;5103789;28;19912;-79
2021/01/22 14:08:46;;;;;;;;;;;6.90;99.90;;;;;;5115673;27;19908;-79
2021/01/22 14:11:11;;;;;;;;;;;6.90;99.90;;;;;;5105899;28;19907;-79
2021/01/22 14:13:37;;;;;;;;;;;6.80;99.90;;;;;;5114824;28;19946;-79
2021/01/22 14:16:02;;;;;;;;;;;6.70;99.90;;;;;;5096474;28;19956;-79
2021/01/22 14:18:28;;;;;;;;;;;6.70;99.90;;;;;;5115899;27;19911;-79
2021/01/22 14:20:53;;;;;;;;;;;6.70;99.90;;;;;;5098115;28;19908;-79
2021/01/22 14:23:19;;;;;;;;;;;6.70;99.90;;;;;;5115999;27;19973;-79
2021/01/22 14:25:44;;;;;;;;;;;6.70;99.90;;;;;;5115390;27;19908;-78
2021/01/22 14:28:10;;;;;;;;;;;6.70;99.90;;;;;;5097890;28;20006;-79